Impacts TAF Board
For situational awareness. Not to be used for flight planning purposes.
IDs:

KDCA - Washington/National, VA, US

Issued at 0847 UTC 17 Feb 2019
Updated at 1025 UTC 17 Feb 2019
Potential Impact None Slight Moderate High
Time0952Z 17/11Z 17/12Z 17/13Z 17/14Z 17/15Z 17/16Z 17/17Z 17/18Z 17/19Z 17/20Z 17/21Z 17/22Z 17/23Z>>
Type OBS PRVL PRVL PRVL PRVL PRVL PRVL PRVL PRVL PRVL PRVL PRVL PRVL PRVL
VIS 10 >6 >6 >6 >6 >6 >6 >6 >6 >6 >6 >6 >6 >6
CIG -- -- -- -- -- 60 60 60 60 60 60 60 60 60
Cover SCT FEW FEW FEW FEW BKN BKN BKN BKN BKN BKN BKN BKN BKN
FltCat VFR VFR VFR VFR VFR VFR VFR VFR VFR VFR VFR VFR VFR VFR
WX -- -- -- -- -- -- -- -- -- -- -- -- -- --
WDir 40 20 20 20 20 VRB VRB VRB VRB VRB VRB VRB VRB VRB
WSpd 6 4 4 4 4 3 3 3 3 3 3 3 3 3
WGst -- -- -- -- -- -- -- -- -- -- -- -- -- --
Raw TAF
KDCA 170847Z 1709/1812 02004KT P6SM FEW200
  FM171500 VRB03KT P6SM BKN060
  FM180000 14006KT 4SM -RA OVC015
  FM180300 18004KT 4SM -RA OVC010
  FM180900 VRB03KT P6SM OVC010
  FM181100 VRB03KT P6SM OVC150


Raw METAR
KDCA 170952Z 04006KT 10SM FEW150 SCT200 01/M07 A3008 RMK AO2 SLP185 T00061067
KDCA 170852Z 02009KT 10SM FEW130 OVC200 01/M07 A3007 RMK AO2 SLP182 T00111067 58000
KDCA 170752Z 35008KT 10SM FEW130 BKN200 01/M06 A3008 RMK AO2 SLP184 T00061061

METAR Board
Radar Display
Forecast Discussion
For situational awareness. Not to be used for flight planning purposes.